Airfield :
LOGIN :

Register | Disclaimer

   EN    FR    IT 

 










Legend :    VFR   Marginal VFR   IFR   Intensive IFR   Very Intensive IFR
Visi :
Ceiling :
>= 8 km
>= 3000ft
5 to 8 km
1000 to 3000 ft
1500m to 5 km
500 to 1000 ft
800 to 1500m
200 to 500 ft
< 800m
< 200 ft
Symbols :   Thunderstorms  Fog  Heavy snow  Heavy precipitations  Wind > 20 kt
SIGMETs :     Misc.  Thunderstorms  Icing  Turbulence  Mountain Waves  Volcanic Ashes







- Airport Elevation : 218 ft


EGYD - RAF Cranwell

CURRENT METAR :
  • 211650Z 31011KT 6000 -RA FEW005 OVC022 13/12 Q1013 WHT BECMG 9999 NSW WHT

EXPIRED METARs :
  • 211550Z 17010KT 8000 -RA SCT005 BKN016 15/14 Q1012 YLO1 TEMPO FEW005 SCT008 GRN
  • 211541Z 17010KT 7000 RA SCT005 OVC021 15/14 Q1012 YLO1 TEMPO FEW005 SCT008 GRN
  • 211450Z 18010KT 6000 RA FEW012 OVC022 15/14 Q1012 WHT TEMPO 9999 -RA WHT

TAF AMD TAF EGYD
Valid from the 21 at 16:00 until the 21 at 18:00 UTC


211617Z 2116/2118 19015KT 9999 BKN018
BECMG 2116/2118 25012KT
TEMPO 2116/2117 4000 RADZ BKN010
PROB30
TEMPO 2116/2117 SCT005
PROB40 2117/2118 SCT030
No reported NOTAMs for that airfield.



MET'MAP, your aeronautical weather chart ! - Copyright ORBIFLY December 2007 - Disclaimer

ORBIFLY MET'MAP TEAM :

Programming & Development : Alexandra Zaïnal
Concept & Development : Baudouin d'Aumeries
Co-Development & Prog : Marc-Olivier Méhu
Technical & hardware support : Manuel Goepfert

Contact : metmap@orbifly.com




SOURCES & CREDITS :

   NOAA